sensor_id;sensor_type;location;lat;lon;timestamp;P1;durP1;ratioP1;P2;durP2;ratioP2
29570;SDS011;16814;52.118;11.436;2022-07-29T00:01:23;3.17;;;1.08;;
29570;SDS011;16814;52.118;11.436;2022-07-29T00:03:50;7.28;;;1.65;;
29570;SDS011;16814;52.118;11.436;2022-07-29T00:06:18;3.97;;;1.40;;
29570;SDS011;16814;52.118;11.436;2022-07-29T00:08:45;6.82;;;1.70;;
29570;SDS011;16814;52.118;11.436;2022-07-29T00:11:12;5.35;;;1.35;;
29570;SDS011;16814;52.118;11.436;2022-07-29T00:13:38;4.82;;;1.30;;
29570;SDS011;16814;52.118;11.436;2022-07-29T00:16:06;7.15;;;1.50;;
29570;SDS011;16814;52.118;11.436;2022-07-29T00:18:34;5.80;;;1.80;;
29570;SDS011;16814;52.118;11.436;2022-07-29T00:21:03;3.35;;;1.20;;
29570;SDS011;16814;52.118;11.436;2022-07-29T00:23:32;3.13;;;1.52;;
29570;SDS011;16814;52.118;11.436;2022-07-29T00:25:58;7.75;;;1.52;;
29570;SDS011;16814;52.118;11.436;2022-07-29T00:28:26;4.28;;;1.15;;
29570;SDS011;16814;52.118;11.436;2022-07-29T00:30:54;4.72;;;1.30;;
29570;SDS011;16814;52.118;11.436;2022-07-29T00:33:21;5.40;;;1.42;;
29570;SDS011;16814;52.118;11.436;2022-07-29T00:35:48;3.42;;;1.27;;
29570;SDS011;16814;52.118;11.436;2022-07-29T00:38:16;4.00;;;1.35;;
29570;SDS011;16814;52.118;11.436;2022-07-29T00:40:45;3.63;;;1.15;;
29570;SDS011;16814;52.118;11.436;2022-07-29T00:43:12;5.80;;;1.50;;
29570;SDS011;16814;52.118;11.436;2022-07-29T00:45:39;4.40;;;1.40;;
29570;SDS011;16814;52.118;11.436;2022-07-29T00:48:05;3.58;;;1.30;;
29570;SDS011;16814;52.118;11.436;2022-07-29T00:50:33;4.53;;;1.50;;
29570;SDS011;16814;52.118;11.436;2022-07-29T00:53:00;4.43;;;1.30;;
29570;SDS011;16814;52.118;11.436;2022-07-29T00:55:30;3.92;;;1.30;;
29570;SDS011;16814;52.118;11.436;2022-07-29T00:57:57;7.77;;;1.40;;
29570;SDS011;16814;52.118;11.436;2022-07-29T01:00:25;4.93;;;1.80;;
29570;SDS011;16814;52.118;11.436;2022-07-29T01:02:52;5.68;;;1.48;;
29570;SDS011;16814;52.118;11.436;2022-07-29T01:05:21;4.22;;;1.25;;
29570;SDS011;16814;52.118;11.436;2022-07-29T01:07:52;5.57;;;1.52;;
29570;SDS011;16814;52.118;11.436;2022-07-29T01:10:19;5.47;;;1.60;;
29570;SDS011;16814;52.118;11.436;2022-07-29T01:12:46;4.68;;;1.58;;
29570;SDS011;16814;52.118;11.436;2022-07-29T01:15:16;4.63;;;1.60;;
29570;SDS011;16814;52.118;11.436;2022-07-29T01:27:04;6.07;;;1.50;;
29570;SDS011;16814;52.118;11.436;2022-07-29T01:30:03;5.80;;;1.45;;
29570;SDS011;16814;52.118;11.436;2022-07-29T01:32:31;7.45;;;1.88;;
29570;SDS011;16814;52.118;11.436;2022-07-29T01:38:10;4.03;;;1.70;;
29570;SDS011;16814;52.118;11.436;2022-07-29T01:43:53;5.83;;;1.90;;
29570;SDS011;16814;52.118;11.436;2022-07-29T01:46:35;6.97;;;1.67;;
29570;SDS011;16814;52.118;11.436;2022-07-29T01:49:14;6.57;;;1.70;;
29570;SDS011;16814;52.118;11.436;2022-07-29T01:51:48;4.68;;;1.48;;
29570;SDS011;16814;52.118;11.436;2022-07-29T01:57:07;7.13;;;1.67;;
29570;SDS011;16814;52.118;11.436;2022-07-29T01:59:40;7.78;;;1.75;;
29570;SDS011;16814;52.118;11.436;2022-07-29T02:02:09;7.80;;;1.70;;
29570;SDS011;16814;52.118;11.436;2022-07-29T02:04:37;6.38;;;1.55;;
29570;SDS011;16814;52.118;11.436;2022-07-29T02:07:08;5.60;;;1.90;;
29570;SDS011;16814;52.118;11.436;2022-07-29T02:09:39;6.13;;;1.60;;
29570;SDS011;16814;52.118;11.436;2022-07-29T02:12:07;5.28;;;1.83;;
29570;SDS011;16814;52.118;11.436;2022-07-29T02:14:37;4.45;;;1.40;;
29570;SDS011;16814;52.118;11.436;2022-07-29T02:17:08;14.18;;;1.77;;
29570;SDS011;16814;52.118;11.436;2022-07-29T02:19:39;4.45;;;1.70;;
29570;SDS011;16814;52.118;11.436;2022-07-29T02:22:08;4.97;;;1.70;;
29570;SDS011;16814;52.118;11.436;2022-07-29T02:24:37;9.80;;;2.13;;
29570;SDS011;16814;52.118;11.436;2022-07-29T02:27:07;4.78;;;1.75;;
29570;SDS011;16814;52.118;11.436;2022-07-29T02:29:35;8.00;;;1.88;;
29570;SDS011;16814;52.118;11.436;2022-07-29T02:32:04;6.32;;;1.90;;
29570;SDS011;16814;52.118;11.436;2022-07-29T02:34:33;5.03;;;2.00;;
29570;SDS011;16814;52.118;11.436;2022-07-29T02:36:59;9.10;;;2.13;;
29570;SDS011;16814;52.118;11.436;2022-07-29T02:39:28;10.23;;;1.90;;
29570;SDS011;16814;52.118;11.436;2022-07-29T02:41:59;5.20;;;1.77;;
29570;SDS011;16814;52.118;11.436;2022-07-29T02:44:30;8.27;;;2.17;;
29570;SDS011;16814;52.118;11.436;2022-07-29T02:53:02;9.10;;;2.17;;
29570;SDS011;16814;52.118;11.436;2022-07-29T02:55:49;7.07;;;2.10;;
29570;SDS011;16814;52.118;11.436;2022-07-29T02:58:32;7.20;;;2.70;;
29570;SDS011;16814;52.118;11.436;2022-07-29T03:01:10;5.07;;;2.20;;
29570;SDS011;16814;52.118;11.436;2022-07-29T03:03:42;11.63;;;2.42;;
29570;SDS011;16814;52.118;11.436;2022-07-29T03:06:10;8.57;;;2.38;;
29570;SDS011;16814;52.118;11.436;2022-07-29T03:08:39;6.72;;;2.17;;
29570;SDS011;16814;52.118;11.436;2022-07-29T03:11:08;8.63;;;2.67;;
29570;SDS011;16814;52.118;11.436;2022-07-29T03:13:37;9.15;;;2.17;;
29570;SDS011;16814;52.118;11.436;2022-07-29T03:16:04;6.38;;;2.13;;
29570;SDS011;16814;52.118;11.436;2022-07-29T03:18:34;10.43;;;2.35;;
29570;SDS011;16814;52.118;11.436;2022-07-29T03:21:03;8.93;;;2.35;;
29570;SDS011;16814;52.118;11.436;2022-07-29T03:23:30;8.68;;;2.70;;
29570;SDS011;16814;52.118;11.436;2022-07-29T03:25:57;5.50;;;2.13;;
29570;SDS011;16814;52.118;11.436;2022-07-29T03:28:23;8.07;;;2.43;;
29570;SDS011;16814;52.118;11.436;2022-07-29T03:30:50;8.75;;;2.60;;
29570;SDS011;16814;52.118;11.436;2022-07-29T03:33:16;5.45;;;2.22;;
29570;SDS011;16814;52.118;11.436;2022-07-29T03:35:43;7.07;;;2.28;;
29570;SDS011;16814;52.118;11.436;2022-07-29T03:38:11;9.68;;;2.42;;
29570;SDS011;16814;52.118;11.436;2022-07-29T03:40:45;6.90;;;2.28;;
29570;SDS011;16814;52.118;11.436;2022-07-29T03:43:15;9.73;;;2.63;;
29570;SDS011;16814;52.118;11.436;2022-07-29T03:45:44;8.07;;;2.45;;
29570;SDS011;16814;52.118;11.436;2022-07-29T03:48:15;9.85;;;2.80;;
29570;SDS011;16814;52.118;11.436;2022-07-29T03:50:44;7.78;;;2.70;;
29570;SDS011;16814;52.118;11.436;2022-07-29T03:53:12;14.60;;;3.00;;
29570;SDS011;16814;52.118;11.436;2022-07-29T03:55:43;4.20;;;2.60;;
29570;SDS011;16814;52.118;11.436;2022-07-29T03:58:13;11.02;;;3.63;;
29570;SDS011;16814;52.118;11.436;2022-07-29T04:00:44;6.43;;;2.35;;
29570;SDS011;16814;52.118;11.436;2022-07-29T04:03:13;7.57;;;2.70;;
29570;SDS011;16814;52.118;11.436;2022-07-29T04:05:39;7.85;;;2.53;;
29570;SDS011;16814;52.118;11.436;2022-07-29T04:08:06;9.70;;;2.80;;
29570;SDS011;16814;52.118;11.436;2022-07-29T04:10:31;9.40;;;3.05;;
29570;SDS011;16814;52.118;11.436;2022-07-29T04:13:00;9.02;;;2.80;;
29570;SDS011;16814;52.118;11.436;2022-07-29T04:15:27;8.43;;;2.75;;
29570;SDS011;16814;52.118;11.436;2022-07-29T04:17:55;9.87;;;3.13;;
29570;SDS011;16814;52.118;11.436;2022-07-29T04:20:21;6.43;;;2.78;;
29570;SDS011;16814;52.118;11.436;2022-07-29T04:22:47;11.70;;;3.27;;
29570;SDS011;16814;52.118;11.436;2022-07-29T04:25:14;8.82;;;3.10;;
29570;SDS011;16814;52.118;11.436;2022-07-29T04:27:39;12.83;;;3.40;;
29570;SDS011;16814;52.118;11.436;2022-07-29T04:30:27;14.05;;;3.72;;
29570;SDS011;16814;52.118;11.436;2022-07-29T04:32:55;9.90;;;3.10;;
29570;SDS011;16814;52.118;11.436;2022-07-29T04:35:23;8.70;;;3.25;;
29570;SDS011;16814;52.118;11.436;2022-07-29T04:37:49;6.85;;;3.17;;
29570;SDS011;16814;52.118;11.436;2022-07-29T04:40:14;6.57;;;3.17;;
29570;SDS011;16814;52.118;11.436;2022-07-29T04:42:42;14.13;;;3.70;;
29570;SDS011;16814;52.118;11.436;2022-07-29T04:45:08;10.73;;;3.50;;
29570;SDS011;16814;52.118;11.436;2022-07-29T04:47:34;8.47;;;3.40;;
29570;SDS011;16814;52.118;11.436;2022-07-29T04:50:02;9.98;;;3.80;;
29570;SDS011;16814;52.118;11.436;2022-07-29T04:52:29;8.65;;;3.70;;
29570;SDS011;16814;52.118;11.436;2022-07-29T04:54:56;7.65;;;3.55;;
29570;SDS011;16814;52.118;11.436;2022-07-29T04:57:22;8.18;;;3.40;;
29570;SDS011;16814;52.118;11.436;2022-07-29T04:59:50;7.03;;;3.50;;
29570;SDS011;16814;52.118;11.436;2022-07-29T05:02:18;11.68;;;3.67;;
29570;SDS011;16814;52.118;11.436;2022-07-29T05:04:46;9.18;;;3.53;;
29570;SDS011;16814;52.118;11.436;2022-07-29T05:07:13;8.05;;;3.70;;
29570;SDS011;16814;52.118;11.436;2022-07-29T05:09:40;8.90;;;3.90;;
29570;SDS011;16814;52.118;11.436;2022-07-29T05:12:06;11.38;;;3.55;;
29570;SDS011;16814;52.118;11.436;2022-07-29T05:14:33;8.15;;;3.28;;
29570;SDS011;16814;52.118;11.436;2022-07-29T05:16:59;8.63;;;3.80;;
29570;SDS011;16814;52.118;11.436;2022-07-29T05:19:26;10.23;;;3.65;;
29570;SDS011;16814;52.118;11.436;2022-07-29T05:21:52;8.82;;;3.80;;
29570;SDS011;16814;52.118;11.436;2022-07-29T05:24:18;9.67;;;3.60;;
29570;SDS011;16814;52.118;11.436;2022-07-29T05:26:45;12.40;;;3.87;;
29570;SDS011;16814;52.118;11.436;2022-07-29T05:29:13;7.22;;;3.35;;
29570;SDS011;16814;52.118;11.436;2022-07-29T05:31:40;10.25;;;3.70;;
29570;SDS011;16814;52.118;11.436;2022-07-29T05:34:06;8.83;;;3.60;;
29570;SDS011;16814;52.118;11.436;2022-07-29T05:36:33;12.70;;;3.75;;
29570;SDS011;16814;52.118;11.436;2022-07-29T05:39:00;9.60;;;3.13;;
29570;SDS011;16814;52.118;11.436;2022-07-29T05:41:25;7.72;;;3.17;;
29570;SDS011;16814;52.118;11.436;2022-07-29T05:43:51;16.48;;;3.60;;
29570;SDS011;16814;52.118;11.436;2022-07-29T05:46:18;10.32;;;3.80;;
29570;SDS011;16814;52.118;11.436;2022-07-29T05:48:44;7.77;;;3.57;;
29570;SDS011;16814;52.118;11.436;2022-07-29T05:51:11;13.05;;;3.60;;
29570;SDS011;16814;52.118;11.436;2022-07-29T05:53:38;17.52;;;4.00;;
29570;SDS011;16814;52.118;11.436;2022-07-29T05:56:05;10.13;;;3.90;;
29570;SDS011;16814;52.118;11.436;2022-07-29T05:58:31;11.25;;;3.97;;
29570;SDS011;16814;52.118;11.436;2022-07-29T06:00:58;11.80;;;4.07;;
29570;SDS011;16814;52.118;11.436;2022-07-29T06:03:25;14.30;;;3.60;;
29570;SDS011;16814;52.118;11.436;2022-07-29T06:05:51;11.03;;;3.60;;
29570;SDS011;16814;52.118;11.436;2022-07-29T06:08:18;7.15;;;3.50;;
29570;SDS011;16814;52.118;11.436;2022-07-29T06:10:45;11.63;;;3.90;;
29570;SDS011;16814;52.118;11.436;2022-07-29T06:13:13;7.97;;;3.53;;
29570;SDS011;16814;52.118;11.436;2022-07-29T06:15:41;16.40;;;4.05;;
29570;SDS011;16814;52.118;11.436;2022-07-29T06:18:09;9.90;;;3.53;;
29570;SDS011;16814;52.118;11.436;2022-07-29T06:20:35;10.95;;;4.05;;
29570;SDS011;16814;52.118;11.436;2022-07-29T06:23:02;10.50;;;3.80;;
29570;SDS011;16814;52.118;11.436;2022-07-29T06:25:30;13.05;;;4.47;;
29570;SDS011;16814;52.118;11.436;2022-07-29T06:27:59;13.55;;;4.28;;
29570;SDS011;16814;52.118;11.436;2022-07-29T06:30:26;7.43;;;3.60;;
29570;SDS011;16814;52.118;11.436;2022-07-29T06:32:54;13.27;;;3.92;;
29570;SDS011;16814;52.118;11.436;2022-07-29T06:35:22;9.40;;;4.57;;
29570;SDS011;16814;52.118;11.436;2022-07-29T06:37:48;11.37;;;3.90;;
29570;SDS011;16814;52.118;11.436;2022-07-29T06:40:17;17.02;;;4.03;;
29570;SDS011;16814;52.118;11.436;2022-07-29T06:43:06;11.00;;;4.07;;
29570;SDS011;16814;52.118;11.436;2022-07-29T06:45:35;15.70;;;4.40;;
29570;SDS011;16814;52.118;11.436;2022-07-29T06:48:04;12.05;;;4.60;;
29570;SDS011;16814;52.118;11.436;2022-07-29T06:50:30;13.75;;;4.68;;
29570;SDS011;16814;52.118;11.436;2022-07-29T06:52:58;10.57;;;4.25;;
29570;SDS011;16814;52.118;11.436;2022-07-29T06:55:24;10.23;;;4.50;;
29570;SDS011;16814;52.118;11.436;2022-07-29T06:57:50;12.00;;;4.50;;
29570;SDS011;16814;52.118;11.436;2022-07-29T07:00:19;10.13;;;4.30;;
29570;SDS011;16814;52.118;11.436;2022-07-29T07:02:45;14.20;;;4.80;;
29570;SDS011;16814;52.118;11.436;2022-07-29T07:05:13;16.33;;;4.60;;
29570;SDS011;16814;52.118;11.436;2022-07-29T07:07:40;14.98;;;3.95;;
29570;SDS011;16814;52.118;11.436;2022-07-29T07:10:06;14.85;;;4.38;;
29570;SDS011;16814;52.118;11.436;2022-07-29T07:12:33;11.52;;;3.88;;
29570;SDS011;16814;52.118;11.436;2022-07-29T07:15:00;10.00;;;4.00;;
29570;SDS011;16814;52.118;11.436;2022-07-29T07:17:26;13.90;;;4.00;;
29570;SDS011;16814;52.118;11.436;2022-07-29T07:19:53;8.80;;;3.75;;
29570;SDS011;16814;52.118;11.436;2022-07-29T07:22:19;11.30;;;4.60;;
29570;SDS011;16814;52.118;11.436;2022-07-29T07:24:47;16.75;;;4.28;;
29570;SDS011;16814;52.118;11.436;2022-07-29T07:27:12;12.02;;;4.30;;
29570;SDS011;16814;52.118;11.436;2022-07-29T07:29:38;12.57;;;4.32;;
29570;SDS011;16814;52.118;11.436;2022-07-29T07:32:06;11.38;;;4.80;;
29570;SDS011;16814;52.118;11.436;2022-07-29T07:34:32;22.45;;;5.10;;
29570;SDS011;16814;52.118;11.436;2022-07-29T07:37:00;11.15;;;4.10;;
29570;SDS011;16814;52.118;11.436;2022-07-29T07:39:25;11.73;;;4.00;;
29570;SDS011;16814;52.118;11.436;2022-07-29T07:41:54;12.52;;;3.78;;
29570;SDS011;16814;52.118;11.436;2022-07-29T07:44:24;16.08;;;4.50;;
29570;SDS011;16814;52.118;11.436;2022-07-29T07:46:51;13.07;;;3.97;;
29570;SDS011;16814;52.118;11.436;2022-07-29T07:49:17;13.30;;;4.25;;
29570;SDS011;16814;52.118;11.436;2022-07-29T07:51:42;15.50;;;3.87;;
29570;SDS011;16814;52.118;11.436;2022-07-29T07:54:08;9.30;;;3.70;;
29570;SDS011;16814;52.118;11.436;2022-07-29T07:56:37;12.90;;;3.83;;
29570;SDS011;16814;52.118;11.436;2022-07-29T07:59:05;9.03;;;3.37;;
29570;SDS011;16814;52.118;11.436;2022-07-29T08:01:30;11.05;;;3.58;;
29570;SDS011;16814;52.118;11.436;2022-07-29T08:03:56;12.93;;;3.95;;
29570;SDS011;16814;52.118;11.436;2022-07-29T08:06:21;7.97;;;3.17;;
29570;SDS011;16814;52.118;11.436;2022-07-29T08:08:52;31.30;;;4.90;;
29570;SDS011;16814;52.118;11.436;2022-07-29T08:11:17;11.82;;;3.78;;
29570;SDS011;16814;52.118;11.436;2022-07-29T08:13:46;13.43;;;3.80;;
29570;SDS011;16814;52.118;11.436;2022-07-29T08:16:14;14.07;;;4.13;;
29570;SDS011;16814;52.118;11.436;2022-07-29T08:18:41;12.63;;;3.78;;
29570;SDS011;16814;52.118;11.436;2022-07-29T08:21:09;10.63;;;3.75;;
29570;SDS011;16814;52.118;11.436;2022-07-29T08:23:36;7.00;;;3.42;;
29570;SDS011;16814;52.118;11.436;2022-07-29T08:26:12;12.23;;;3.42;;
29570;SDS011;16814;52.118;11.436;2022-07-29T08:28:39;13.07;;;3.90;;
29570;SDS011;16814;52.118;11.436;2022-07-29T08:31:08;14.88;;;4.22;;
29570;SDS011;16814;52.118;11.436;2022-07-29T08:33:33;17.20;;;4.40;;
29570;SDS011;16814;52.118;11.436;2022-07-29T08:36:09;13.65;;;4.05;;
29570;SDS011;16814;52.118;11.436;2022-07-29T08:38:44;14.77;;;4.17;;
29570;SDS011;16814;52.118;11.436;2022-07-29T08:41:11;20.33;;;3.95;;
29570;SDS011;16814;52.118;11.436;2022-07-29T08:43:39;23.77;;;4.10;;
29570;SDS011;16814;52.118;11.436;2022-07-29T08:46:05;12.95;;;3.30;;
29570;SDS011;16814;52.118;11.436;2022-07-29T08:48:33;15.60;;;3.67;;
29570;SDS011;16814;52.118;11.436;2022-07-29T08:51:01;17.20;;;4.25;;
29570;SDS011;16814;52.118;11.436;2022-07-29T08:53:28;16.85;;;3.47;;
29570;SDS011;16814;52.118;11.436;2022-07-29T08:55:56;17.38;;;3.72;;
29570;SDS011;16814;52.118;11.436;2022-07-29T08:58:27;26.25;;;4.78;;
29570;SDS011;16814;52.118;11.436;2022-07-29T09:00:59;9.13;;;3.60;;
29570;SDS011;16814;52.118;11.436;2022-07-29T09:03:31;10.40;;;3.30;;
29570;SDS011;16814;52.118;11.436;2022-07-29T09:05:58;13.73;;;3.40;;
29570;SDS011;16814;52.118;11.436;2022-07-29T09:08:26;18.77;;;3.30;;
29570;SDS011;16814;52.118;11.436;2022-07-29T09:10:52;10.75;;;3.05;;
29570;SDS011;16814;52.118;11.436;2022-07-29T09:13:20;12.52;;;3.53;;
29570;SDS011;16814;52.118;11.436;2022-07-29T09:15:49;11.32;;;3.45;;
29570;SDS011;16814;52.118;11.436;2022-07-29T09:21:02;12.13;;;3.90;;
29570;SDS011;16814;52.118;11.436;2022-07-29T09:26:40;10.45;;;3.85;;
29570;SDS011;16814;52.118;11.436;2022-07-29T09:29:10;11.55;;;3.53;;
29570;SDS011;16814;52.118;11.436;2022-07-29T09:31:46;9.50;;;3.28;;
29570;SDS011;16814;52.118;11.436;2022-07-29T09:34:15;10.43;;;3.20;;
29570;SDS011;16814;52.118;11.436;2022-07-29T09:36:43;9.13;;;3.10;;
29570;SDS011;16814;52.118;11.436;2022-07-29T09:39:15;15.25;;;3.85;;
29570;SDS011;16814;52.118;11.436;2022-07-29T09:41:52;10.35;;;3.33;;
29570;SDS011;16814;52.118;11.436;2022-07-29T09:44:20;15.63;;;3.43;;
29570;SDS011;16814;52.118;11.436;2022-07-29T09:46:59;9.65;;;3.53;;
29570;SDS011;16814;52.118;11.436;2022-07-29T09:49:31;13.68;;;3.20;;
29570;SDS011;16814;52.118;11.436;2022-07-29T09:52:03;10.18;;;3.70;;
29570;SDS011;16814;52.118;11.436;2022-07-29T09:54:32;13.73;;;3.53;;
29570;SDS011;16814;52.118;11.436;2022-07-29T09:57:09;14.10;;;3.55;;
29570;SDS011;16814;52.118;11.436;2022-07-29T10:00:04;12.73;;;3.35;;
29570;SDS011;16814;52.118;11.436;2022-07-29T10:02:46;9.55;;;3.72;;
29570;SDS011;16814;52.118;11.436;2022-07-29T10:05:19;11.77;;;3.50;;
29570;SDS011;16814;52.118;11.436;2022-07-29T10:07:51;11.77;;;3.83;;
29570;SDS011;16814;52.118;11.436;2022-07-29T10:10:21;11.68;;;3.65;;
29570;SDS011;16814;52.118;11.436;2022-07-29T10:12:55;10.67;;;2.93;;
29570;SDS011;16814;52.118;11.436;2022-07-29T10:15:25;11.65;;;3.10;;
29570;SDS011;16814;52.118;11.436;2022-07-29T10:17:54;9.57;;;3.00;;
29570;SDS011;16814;52.118;11.436;2022-07-29T10:20:21;10.60;;;3.00;;
29570;SDS011;16814;52.118;11.436;2022-07-29T10:22:48;13.65;;;3.30;;
29570;SDS011;16814;52.118;11.436;2022-07-29T10:25:16;10.27;;;2.72;;
29570;SDS011;16814;52.118;11.436;2022-07-29T10:27:45;7.35;;;2.45;;
29570;SDS011;16814;52.118;11.436;2022-07-29T10:30:14;9.02;;;2.78;;
29570;SDS011;16814;52.118;11.436;2022-07-29T10:32:51;12.63;;;2.67;;
29570;SDS011;16814;52.118;11.436;2022-07-29T10:38:50;9.02;;;2.40;;
29570;SDS011;16814;52.118;11.436;2022-07-29T10:44:08;9.87;;;2.37;;
29570;SDS011;16814;52.118;11.436;2022-07-29T10:46:43;7.45;;;2.80;;
29570;SDS011;16814;52.118;11.436;2022-07-29T10:49:20;11.88;;;2.70;;
29570;SDS011;16814;52.118;11.436;2022-07-29T10:52:06;13.18;;;2.75;;
29570;SDS011;16814;52.118;11.436;2022-07-29T10:57:21;8.48;;;2.60;;
29570;SDS011;16814;52.118;11.436;2022-07-29T11:02:53;8.95;;;2.53;;
29570;SDS011;16814;52.118;11.436;2022-07-29T11:05:23;6.18;;;2.20;;
29570;SDS011;16814;52.118;11.436;2022-07-29T11:10:47;13.95;;;2.45;;
29570;SDS011;16814;52.118;11.436;2022-07-29T11:13:36;4.63;;;1.83;;
29570;SDS011;16814;52.118;11.436;2022-07-29T11:16:17;9.82;;;2.40;;
29570;SDS011;16814;52.118;11.436;2022-07-29T11:21:38;6.80;;;2.30;;
29570;SDS011;16814;52.118;11.436;2022-07-29T11:24:17;11.52;;;2.42;;
29570;SDS011;16814;52.118;11.436;2022-07-29T11:27:20;9.27;;;2.10;;
29570;SDS011;16814;52.118;11.436;2022-07-29T11:29:49;12.77;;;2.05;;
29570;SDS011;16814;52.118;11.436;2022-07-29T11:32:16;8.87;;;2.13;;
29570;SDS011;16814;52.118;11.436;2022-07-29T11:35:10;6.43;;;2.20;;
29570;SDS011;16814;52.118;11.436;2022-07-29T11:37:37;8.43;;;2.33;;
29570;SDS011;16814;52.118;11.436;2022-07-29T11:42:38;10.75;;;2.25;;
29570;SDS011;16814;52.118;11.436;2022-07-29T11:45:24;9.23;;;2.20;;
29570;SDS011;16814;52.118;11.436;2022-07-29T11:48:15;7.07;;;1.92;;
29570;SDS011;16814;52.118;11.436;2022-07-29T11:50:43;4.95;;;2.00;;
29570;SDS011;16814;52.118;11.436;2022-07-29T11:53:10;12.18;;;2.05;;
29570;SDS011;16814;52.118;11.436;2022-07-29T11:55:39;7.60;;;2.40;;
29570;SDS011;16814;52.118;11.436;2022-07-29T11:58:07;6.47;;;1.90;;
29570;SDS011;16814;52.118;11.436;2022-07-29T12:00:40;7.22;;;1.73;;
29570;SDS011;16814;52.118;11.436;2022-07-29T12:03:08;9.17;;;1.67;;
29570;SDS011;16814;52.118;11.436;2022-07-29T12:05:43;6.65;;;2.20;;
29570;SDS011;16814;52.118;11.436;2022-07-29T12:08:13;5.93;;;2.10;;
29570;SDS011;16814;52.118;11.436;2022-07-29T12:10:54;3.67;;;1.77;;
29570;SDS011;16814;52.118;11.436;2022-07-29T12:13:20;4.70;;;1.70;;
29570;SDS011;16814;52.118;11.436;2022-07-29T12:15:51;7.75;;;2.00;;
29570;SDS011;16814;52.118;11.436;2022-07-29T12:18:20;5.20;;;1.90;;
29570;SDS011;16814;52.118;11.436;2022-07-29T12:20:48;6.82;;;1.88;;
29570;SDS011;16814;52.118;11.436;2022-07-29T12:23:21;7.78;;;1.75;;
29570;SDS011;16814;52.118;11.436;2022-07-29T12:25:48;6.13;;;1.90;;
29570;SDS011;16814;52.118;11.436;2022-07-29T12:28:14;7.68;;;2.00;;
29570;SDS011;16814;52.118;11.436;2022-07-29T12:30:44;5.95;;;2.17;;
29570;SDS011;16814;52.118;11.436;2022-07-29T12:33:27;8.68;;;1.95;;
29570;SDS011;16814;52.118;11.436;2022-07-29T12:36:01;9.05;;;2.17;;
29570;SDS011;16814;52.118;11.436;2022-07-29T12:38:28;9.25;;;2.17;;
29570;SDS011;16814;52.118;11.436;2022-07-29T12:40:56;8.40;;;2.35;;
29570;SDS011;16814;52.118;11.436;2022-07-29T12:43:25;6.28;;;1.98;;
29570;SDS011;16814;52.118;11.436;2022-07-29T12:45:53;9.63;;;2.00;;
29570;SDS011;16814;52.118;11.436;2022-07-29T12:48:39;7.15;;;2.00;;
29570;SDS011;16814;52.118;11.436;2022-07-29T12:51:06;5.45;;;1.98;;
29570;SDS011;16814;52.118;11.436;2022-07-29T12:53:39;4.57;;;1.75;;
29570;SDS011;16814;52.118;11.436;2022-07-29T12:56:06;7.70;;;2.28;;
29570;SDS011;16814;52.118;11.436;2022-07-29T12:58:42;5.90;;;2.40;;
29570;SDS011;16814;52.118;11.436;2022-07-29T13:01:11;6.97;;;2.17;;
29570;SDS011;16814;52.118;11.436;2022-07-29T13:06:32;5.13;;;1.90;;
29570;SDS011;16814;52.118;11.436;2022-07-29T13:11:42;3.53;;;2.13;;
29570;SDS011;16814;52.118;11.436;2022-07-29T13:14:13;5.03;;;1.98;;
29570;SDS011;16814;52.118;11.436;2022-07-29T13:17:09;6.47;;;1.90;;
29570;SDS011;16814;52.118;11.436;2022-07-29T13:19:52;4.03;;;1.75;;
29570;SDS011;16814;52.118;11.436;2022-07-29T13:22:34;5.63;;;1.90;;
29570;SDS011;16814;52.118;11.436;2022-07-29T13:25:08;6.68;;;2.10;;
29570;SDS011;16814;52.118;11.436;2022-07-29T13:27:38;6.28;;;1.85;;
29570;SDS011;16814;52.118;11.436;2022-07-29T13:30:06;6.55;;;2.33;;
29570;SDS011;16814;52.118;11.436;2022-07-29T13:32:34;11.18;;;2.30;;
29570;SDS011;16814;52.118;11.436;2022-07-29T13:35:04;10.05;;;2.20;;
29570;SDS011;16814;52.118;11.436;2022-07-29T13:37:31;7.22;;;2.30;;
29570;SDS011;16814;52.118;11.436;2022-07-29T13:40:00;7.20;;;2.05;;
29570;SDS011;16814;52.118;11.436;2022-07-29T13:42:29;4.63;;;1.70;;
29570;SDS011;16814;52.118;11.436;2022-07-29T13:44:56;3.88;;;1.88;;
29570;SDS011;16814;52.118;11.436;2022-07-29T13:47:25;3.85;;;1.95;;
29570;SDS011;16814;52.118;11.436;2022-07-29T13:49:52;3.67;;;1.70;;
29570;SDS011;16814;52.118;11.436;2022-07-29T13:52:19;8.13;;;2.22;;
29570;SDS011;16814;52.118;11.436;2022-07-29T13:54:45;6.13;;;1.95;;
29570;SDS011;16814;52.118;11.436;2022-07-29T13:57:12;5.03;;;1.92;;
29570;SDS011;16814;52.118;11.436;2022-07-29T13:59:40;6.85;;;2.33;;
29570;SDS011;16814;52.118;11.436;2022-07-29T14:02:08;6.57;;;2.30;;
29570;SDS011;16814;52.118;11.436;2022-07-29T14:04:35;5.75;;;1.88;;
29570;SDS011;16814;52.118;11.436;2022-07-29T14:07:03;5.22;;;2.10;;
29570;SDS011;16814;52.118;11.436;2022-07-29T14:09:30;9.82;;;2.55;;
29570;SDS011;16814;52.118;11.436;2022-07-29T14:11:57;4.60;;;1.97;;
29570;SDS011;16814;52.118;11.436;2022-07-29T14:14:27;13.68;;;2.50;;
29570;SDS011;16814;52.118;11.436;2022-07-29T14:16:56;7.07;;;2.20;;
29570;SDS011;16814;52.118;11.436;2022-07-29T14:19:23;6.05;;;2.10;;
29570;SDS011;16814;52.118;11.436;2022-07-29T14:21:49;7.73;;;2.30;;
29570;SDS011;16814;52.118;11.436;2022-07-29T14:24:15;10.23;;;2.28;;
29570;SDS011;16814;52.118;11.436;2022-07-29T14:26:43;7.35;;;2.38;;
29570;SDS011;16814;52.118;11.436;2022-07-29T14:29:08;5.57;;;2.07;;
29570;SDS011;16814;52.118;11.436;2022-07-29T14:31:34;9.52;;;2.20;;
29570;SDS011;16814;52.118;11.436;2022-07-29T14:34:01;4.53;;;2.10;;
29570;SDS011;16814;52.118;11.436;2022-07-29T14:36:28;4.63;;;1.95;;
29570;SDS011;16814;52.118;11.436;2022-07-29T14:38:54;5.70;;;2.03;;
29570;SDS011;16814;52.118;11.436;2022-07-29T14:41:21;8.50;;;2.10;;
29570;SDS011;16814;52.118;11.436;2022-07-29T14:43:47;6.93;;;1.97;;
29570;SDS011;16814;52.118;11.436;2022-07-29T14:46:15;6.70;;;2.00;;
29570;SDS011;16814;52.118;11.436;2022-07-29T14:48:40;4.63;;;2.13;;
29570;SDS011;16814;52.118;11.436;2022-07-29T14:51:07;6.95;;;2.13;;
29570;SDS011;16814;52.118;11.436;2022-07-29T14:53:41;4.45;;;1.90;;
29570;SDS011;16814;52.118;11.436;2022-07-29T14:56:09;6.07;;;1.90;;
29570;SDS011;16814;52.118;11.436;2022-07-29T14:58:36;4.93;;;1.98;;
29570;SDS011;16814;52.118;11.436;2022-07-29T15:01:03;7.90;;;1.90;;
29570;SDS011;16814;52.118;11.436;2022-07-29T15:03:31;6.20;;;1.80;;
29570;SDS011;16814;52.118;11.436;2022-07-29T15:05:58;8.38;;;2.13;;
29570;SDS011;16814;52.118;11.436;2022-07-29T15:08:24;4.63;;;1.90;;
29570;SDS011;16814;52.118;11.436;2022-07-29T15:10:54;5.38;;;1.83;;
29570;SDS011;16814;52.118;11.436;2022-07-29T15:13:22;6.45;;;2.13;;
29570;SDS011;16814;52.118;11.436;2022-07-29T15:15:48;4.80;;;1.90;;
29570;SDS011;16814;52.118;11.436;2022-07-29T15:18:16;4.55;;;1.65;;
29570;SDS011;16814;52.118;11.436;2022-07-29T15:20:44;3.92;;;1.80;;
29570;SDS011;16814;52.118;11.436;2022-07-29T15:23:11;8.25;;;1.88;;
29570;SDS011;16814;52.118;11.436;2022-07-29T15:25:39;4.43;;;1.83;;
29570;SDS011;16814;52.118;11.436;2022-07-29T15:28:05;7.27;;;1.97;;
29570;SDS011;16814;52.118;11.436;2022-07-29T15:30:36;9.30;;;2.10;;
29570;SDS011;16814;52.118;11.436;2022-07-29T15:33:09;4.75;;;2.30;;
29570;SDS011;16814;52.118;11.436;2022-07-29T15:35:36;6.57;;;2.00;;
29570;SDS011;16814;52.118;11.436;2022-07-29T15:38:04;6.30;;;2.10;;
29570;SDS011;16814;52.118;11.436;2022-07-29T15:40:33;6.77;;;2.00;;